sensor_id;sensor_type;location;lat;lon;timestamp;P1;durP1;ratioP1;P2;durP2;ratioP2
5379;SDS011;2713;42.680;23.310;2022-11-20T00:01:24;2.10;;;1.90;;
5379;SDS011;2713;42.680;23.310;2022-11-20T00:03:52;2.23;;;1.57;;
5379;SDS011;2713;42.680;23.310;2022-11-20T00:06:21;1.93;;;1.53;;
5379;SDS011;2713;42.680;23.310;2022-11-20T00:08:50;2.80;;;1.43;;
5379;SDS011;2713;42.680;23.310;2022-11-20T00:11:18;3.17;;;1.50;;
5379;SDS011;2713;42.680;23.310;2022-11-20T00:13:47;3.47;;;1.60;;
5379;SDS011;2713;42.680;23.310;2022-11-20T00:16:15;1.83;;;1.63;;
5379;SDS011;2713;42.680;23.310;2022-11-20T00:18:43;2.07;;;1.87;;
5379;SDS011;2713;42.680;23.310;2022-11-20T00:21:11;1.83;;;1.40;;
5379;SDS011;2713;42.680;23.310;2022-11-20T00:23:39;4.77;;;1.43;;
5379;SDS011;2713;42.680;23.310;2022-11-20T00:26:08;2.13;;;1.20;;
5379;SDS011;2713;42.680;23.310;2022-11-20T00:28:36;1.93;;;1.53;;
5379;SDS011;2713;42.680;23.310;2022-11-20T00:31:04;2.03;;;1.30;;
5379;SDS011;2713;42.680;23.310;2022-11-20T00:33:31;2.13;;;1.50;;
5379;SDS011;2713;42.680;23.310;2022-11-20T00:35:59;2.33;;;1.50;;
5379;SDS011;2713;42.680;23.310;2022-11-20T00:38:27;1.40;;;1.30;;
5379;SDS011;2713;42.680;23.310;2022-11-20T00:40:55;2.03;;;1.50;;
5379;SDS011;2713;42.680;23.310;2022-11-20T00:43:25;2.53;;;1.47;;
5379;SDS011;2713;42.680;23.310;2022-11-20T00:45:56;2.70;;;1.50;;
5379;SDS011;2713;42.680;23.310;2022-11-20T00:48:23;4.13;;;1.53;;
5379;SDS011;2713;42.680;23.310;2022-11-20T00:50:50;1.53;;;1.40;;
5379;SDS011;2713;42.680;23.310;2022-11-20T00:53:17;6.33;;;1.47;;
5379;SDS011;2713;42.680;23.310;2022-11-20T00:55:51;2.50;;;1.40;;
5379;SDS011;2713;42.680;23.310;2022-11-20T00:58:19;2.00;;;1.20;;
5379;SDS011;2713;42.680;23.310;2022-11-20T01:00:47;1.43;;;1.33;;
5379;SDS011;2713;42.680;23.310;2022-11-20T01:03:14;3.30;;;1.40;;
5379;SDS011;2713;42.680;23.310;2022-11-20T01:05:41;2.80;;;1.40;;
5379;SDS011;2713;42.680;23.310;2022-11-20T01:08:08;3.70;;;1.30;;
5379;SDS011;2713;42.680;23.310;2022-11-20T01:10:35;4.17;;;1.63;;
5379;SDS011;2713;42.680;23.310;2022-11-20T01:13:03;2.80;;;1.93;;
5379;SDS011;2713;42.680;23.310;2022-11-20T01:15:48;1.73;;;1.50;;
5379;SDS011;2713;42.680;23.310;2022-11-20T01:18:15;3.83;;;1.43;;
5379;SDS011;2713;42.680;23.310;2022-11-20T01:20:42;1.20;;;1.10;;
5379;SDS011;2713;42.680;23.310;2022-11-20T01:23:08;1.63;;;1.53;;
5379;SDS011;2713;42.680;23.310;2022-11-20T01:25:35;1.43;;;1.17;;
5379;SDS011;2713;42.680;23.310;2022-11-20T01:28:02;1.63;;;1.40;;
5379;SDS011;2713;42.680;23.310;2022-11-20T01:30:29;2.00;;;1.47;;
5379;SDS011;2713;42.680;23.310;2022-11-20T01:32:57;4.03;;;1.30;;
5379;SDS011;2713;42.680;23.310;2022-11-20T01:35:24;2.57;;;1.40;;
5379;SDS011;2713;42.680;23.310;2022-11-20T01:37:50;1.40;;;1.27;;
5379;SDS011;2713;42.680;23.310;2022-11-20T01:40:17;1.80;;;1.60;;
5379;SDS011;2713;42.680;23.310;2022-11-20T01:42:46;3.40;;;1.40;;
5379;SDS011;2713;42.680;23.310;2022-11-20T01:45:45;2.40;;;1.27;;
5379;SDS011;2713;42.680;23.310;2022-11-20T01:48:23;1.67;;;1.13;;
5379;SDS011;2713;42.680;23.310;2022-11-20T01:50:54;1.67;;;1.33;;
5379;SDS011;2713;42.680;23.310;2022-11-20T01:53:22;1.27;;;0.80;;
5379;SDS011;2713;42.680;23.310;2022-11-20T01:55:53;1.10;;;1.00;;
5379;SDS011;2713;42.680;23.310;2022-11-20T01:58:24;1.40;;;1.10;;
5379;SDS011;2713;42.680;23.310;2022-11-20T02:00:53;1.67;;;1.07;;
5379;SDS011;2713;42.680;23.310;2022-11-20T02:03:20;1.20;;;1.07;;
5379;SDS011;2713;42.680;23.310;2022-11-20T02:05:49;2.20;;;1.53;;
5379;SDS011;2713;42.680;23.310;2022-11-20T02:08:21;1.97;;;1.20;;
5379;SDS011;2713;42.680;23.310;2022-11-20T02:10:50;1.50;;;1.33;;
5379;SDS011;2713;42.680;23.310;2022-11-20T02:13:17;1.30;;;1.20;;
5379;SDS011;2713;42.680;23.310;2022-11-20T02:16:01;1.77;;;1.10;;
5379;SDS011;2713;42.680;23.310;2022-11-20T02:18:29;1.27;;;1.10;;
5379;SDS011;2713;42.680;23.310;2022-11-20T02:20:59;3.17;;;1.27;;
5379;SDS011;2713;42.680;23.310;2022-11-20T02:23:32;2.50;;;1.20;;
5379;SDS011;2713;42.680;23.310;2022-11-20T02:26:06;1.10;;;1.00;;
5379;SDS011;2713;42.680;23.310;2022-11-20T02:28:37;1.30;;;1.10;;
5379;SDS011;2713;42.680;23.310;2022-11-20T02:31:05;2.30;;;1.10;;
5379;SDS011;2713;42.680;23.310;2022-11-20T02:33:31;2.13;;;1.20;;
5379;SDS011;2713;42.680;23.310;2022-11-20T02:35:58;1.57;;;1.20;;
5379;SDS011;2713;42.680;23.310;2022-11-20T02:38:25;3.00;;;1.37;;
5379;SDS011;2713;42.680;23.310;2022-11-20T02:40:52;1.30;;;1.20;;
5379;SDS011;2713;42.680;23.310;2022-11-20T02:43:20;1.50;;;1.10;;
5379;SDS011;2713;42.680;23.310;2022-11-20T02:45:47;1.23;;;1.07;;
5379;SDS011;2713;42.680;23.310;2022-11-20T02:48:14;1.50;;;1.20;;
5379;SDS011;2713;42.680;23.310;2022-11-20T02:50:41;1.87;;;1.50;;
5379;SDS011;2713;42.680;23.310;2022-11-20T02:53:08;2.03;;;1.70;;
5379;SDS011;2713;42.680;23.310;2022-11-20T02:55:35;2.17;;;1.90;;
5379;SDS011;2713;42.680;23.310;2022-11-20T02:58:02;1.70;;;1.60;;
5379;SDS011;2713;42.680;23.310;2022-11-20T03:00:30;3.10;;;1.53;;
5379;SDS011;2713;42.680;23.310;2022-11-20T03:02:57;2.27;;;1.20;;
5379;SDS011;2713;42.680;23.310;2022-11-20T03:05:24;1.83;;;1.73;;
5379;SDS011;2713;42.680;23.310;2022-11-20T03:07:51;2.43;;;1.90;;
5379;SDS011;2713;42.680;23.310;2022-11-20T03:10:18;2.80;;;1.70;;
5379;SDS011;2713;42.680;23.310;2022-11-20T03:12:45;2.63;;;2.10;;
5379;SDS011;2713;42.680;23.310;2022-11-20T03:15:11;1.80;;;1.70;;
5379;SDS011;2713;42.680;23.310;2022-11-20T03:17:40;3.07;;;1.70;;
5379;SDS011;2713;42.680;23.310;2022-11-20T03:20:07;1.93;;;1.73;;
5379;SDS011;2713;42.680;23.310;2022-11-20T03:22:35;2.90;;;1.80;;
5379;SDS011;2713;42.680;23.310;2022-11-20T03:25:01;2.37;;;1.60;;
5379;SDS011;2713;42.680;23.310;2022-11-20T03:27:31;2.30;;;2.10;;
5379;SDS011;2713;42.680;23.310;2022-11-20T03:29:58;1.80;;;1.70;;
5379;SDS011;2713;42.680;23.310;2022-11-20T03:32:25;1.93;;;1.67;;
5379;SDS011;2713;42.680;23.310;2022-11-20T03:34:54;3.03;;;2.00;;
5379;SDS011;2713;42.680;23.310;2022-11-20T03:37:20;2.30;;;1.47;;
5379;SDS011;2713;42.680;23.310;2022-11-20T03:39:47;1.80;;;1.50;;
5379;SDS011;2713;42.680;23.310;2022-11-20T03:42:14;1.90;;;1.40;;
5379;SDS011;2713;42.680;23.310;2022-11-20T03:44:55;1.90;;;1.50;;
5379;SDS011;2713;42.680;23.310;2022-11-20T03:47:21;3.10;;;1.40;;
5379;SDS011;2713;42.680;23.310;2022-11-20T03:49:48;3.33;;;1.67;;
5379;SDS011;2713;42.680;23.310;2022-11-20T03:52:16;2.00;;;1.30;;
5379;SDS011;2713;42.680;23.310;2022-11-20T03:54:43;2.03;;;1.40;;
5379;SDS011;2713;42.680;23.310;2022-11-20T03:57:10;2.60;;;1.47;;
5379;SDS011;2713;42.680;23.310;2022-11-20T03:59:37;2.53;;;1.80;;
5379;SDS011;2713;42.680;23.310;2022-11-20T04:02:04;4.27;;;1.20;;
5379;SDS011;2713;42.680;23.310;2022-11-20T04:04:30;2.17;;;1.37;;
5379;SDS011;2713;42.680;23.310;2022-11-20T04:06:57;1.43;;;1.30;;
5379;SDS011;2713;42.680;23.310;2022-11-20T04:09:25;2.37;;;1.50;;
5379;SDS011;2713;42.680;23.310;2022-11-20T04:11:52;2.00;;;1.50;;
5379;SDS011;2713;42.680;23.310;2022-11-20T04:14:19;4.40;;;1.63;;
5379;SDS011;2713;42.680;23.310;2022-11-20T04:16:46;1.47;;;1.37;;
5379;SDS011;2713;42.680;23.310;2022-11-20T04:19:13;2.50;;;1.43;;
5379;SDS011;2713;42.680;23.310;2022-11-20T04:21:41;4.20;;;1.40;;
5379;SDS011;2713;42.680;23.310;2022-11-20T04:24:08;1.50;;;1.40;;
5379;SDS011;2713;42.680;23.310;2022-11-20T04:26:37;1.53;;;1.43;;
5379;SDS011;2713;42.680;23.310;2022-11-20T04:29:05;2.07;;;1.40;;
5379;SDS011;2713;42.680;23.310;2022-11-20T04:31:33;5.13;;;1.83;;
5379;SDS011;2713;42.680;23.310;2022-11-20T04:34:00;1.70;;;1.30;;
5379;SDS011;2713;42.680;23.310;2022-11-20T04:36:29;1.77;;;1.60;;
5379;SDS011;2713;42.680;23.310;2022-11-20T04:38:56;3.43;;;1.63;;
5379;SDS011;2713;42.680;23.310;2022-11-20T04:41:25;1.50;;;1.40;;
5379;SDS011;2713;42.680;23.310;2022-11-20T04:43:55;2.17;;;1.27;;
5379;SDS011;2713;42.680;23.310;2022-11-20T04:46:27;1.63;;;1.40;;
5379;SDS011;2713;42.680;23.310;2022-11-20T04:48:55;2.27;;;1.57;;
5379;SDS011;2713;42.680;23.310;2022-11-20T04:51:22;2.03;;;1.47;;
5379;SDS011;2713;42.680;23.310;2022-11-20T04:53:49;1.40;;;1.30;;
5379;SDS011;2713;42.680;23.310;2022-11-20T04:56:17;1.27;;;1.17;;
5379;SDS011;2713;42.680;23.310;2022-11-20T04:58:43;2.97;;;1.43;;
5379;SDS011;2713;42.680;23.310;2022-11-20T05:01:12;2.13;;;1.20;;
5379;SDS011;2713;42.680;23.310;2022-11-20T05:03:41;1.30;;;1.20;;
5379;SDS011;2713;42.680;23.310;2022-11-20T05:06:09;2.73;;;1.27;;
5379;SDS011;2713;42.680;23.310;2022-11-20T05:08:37;2.00;;;1.83;;
5379;SDS011;2713;42.680;23.310;2022-11-20T05:11:05;3.20;;;1.40;;
5379;SDS011;2713;42.680;23.310;2022-11-20T05:13:34;1.07;;;0.97;;
5379;SDS011;2713;42.680;23.310;2022-11-20T05:16:02;1.83;;;1.33;;
5379;SDS011;2713;42.680;23.310;2022-11-20T05:18:30;3.80;;;1.60;;
5379;SDS011;2713;42.680;23.310;2022-11-20T05:20:57;1.43;;;1.10;;
5379;SDS011;2713;42.680;23.310;2022-11-20T05:23:25;1.20;;;1.10;;
5379;SDS011;2713;42.680;23.310;2022-11-20T05:25:53;3.87;;;1.23;;
5379;SDS011;2713;42.680;23.310;2022-11-20T05:28:21;1.10;;;0.90;;
5379;SDS011;2713;42.680;23.310;2022-11-20T05:30:48;2.13;;;1.20;;
5379;SDS011;2713;42.680;23.310;2022-11-20T05:33:16;2.20;;;1.10;;
5379;SDS011;2713;42.680;23.310;2022-11-20T05:35:44;2.10;;;1.27;;
5379;SDS011;2713;42.680;23.310;2022-11-20T05:38:11;2.03;;;1.13;;
5379;SDS011;2713;42.680;23.310;2022-11-20T05:40:38;2.87;;;1.20;;
5379;SDS011;2713;42.680;23.310;2022-11-20T05:43:05;2.47;;;1.80;;
5379;SDS011;2713;42.680;23.310;2022-11-20T05:45:32;1.97;;;1.20;;
5379;SDS011;2713;42.680;23.310;2022-11-20T05:47:58;2.67;;;1.23;;
5379;SDS011;2713;42.680;23.310;2022-11-20T05:50:26;2.50;;;1.20;;
5379;SDS011;2713;42.680;23.310;2022-11-20T05:52:54;2.60;;;1.30;;
5379;SDS011;2713;42.680;23.310;2022-11-20T05:55:21;1.80;;;1.40;;
5379;SDS011;2713;42.680;23.310;2022-11-20T05:57:48;3.27;;;1.60;;
5379;SDS011;2713;42.680;23.310;2022-11-20T06:00:15;2.10;;;1.30;;
5379;SDS011;2713;42.680;23.310;2022-11-20T06:02:42;1.83;;;1.67;;
5379;SDS011;2713;42.680;23.310;2022-11-20T06:05:09;1.80;;;1.70;;
5379;SDS011;2713;42.680;23.310;2022-11-20T06:07:35;2.37;;;1.87;;
5379;SDS011;2713;42.680;23.310;2022-11-20T06:10:04;3.30;;;1.90;;
5379;SDS011;2713;42.680;23.310;2022-11-20T06:12:31;1.90;;;1.80;;
5379;SDS011;2713;42.680;23.310;2022-11-20T06:14:58;2.00;;;1.63;;
5379;SDS011;2713;42.680;23.310;2022-11-20T06:17:26;5.80;;;1.70;;
5379;SDS011;2713;42.680;23.310;2022-11-20T06:19:53;2.50;;;1.60;;
5379;SDS011;2713;42.680;23.310;2022-11-20T06:22:19;3.33;;;1.90;;
5379;SDS011;2713;42.680;23.310;2022-11-20T06:24:47;3.33;;;1.97;;
5379;SDS011;2713;42.680;23.310;2022-11-20T06:27:15;2.10;;;1.90;;
5379;SDS011;2713;42.680;23.310;2022-11-20T06:29:42;2.23;;;1.90;;
5379;SDS011;2713;42.680;23.310;2022-11-20T06:32:09;3.30;;;2.40;;
5379;SDS011;2713;42.680;23.310;2022-11-20T06:34:36;3.23;;;1.60;;
5379;SDS011;2713;42.680;23.310;2022-11-20T06:37:03;1.70;;;1.60;;
5379;SDS011;2713;42.680;23.310;2022-11-20T06:39:30;1.63;;;1.53;;
5379;SDS011;2713;42.680;23.310;2022-11-20T06:41:57;2.53;;;2.07;;
5379;SDS011;2713;42.680;23.310;2022-11-20T06:44:25;2.27;;;1.70;;
5379;SDS011;2713;42.680;23.310;2022-11-20T06:46:52;4.53;;;1.80;;
5379;SDS011;2713;42.680;23.310;2022-11-20T06:49:18;2.43;;;1.90;;
5379;SDS011;2713;42.680;23.310;2022-11-20T06:51:45;6.80;;;1.50;;
5379;SDS011;2713;42.680;23.310;2022-11-20T06:54:12;3.57;;;1.77;;
5379;SDS011;2713;42.680;23.310;2022-11-20T06:56:39;5.27;;;2.27;;
5379;SDS011;2713;42.680;23.310;2022-11-20T06:59:06;3.13;;;1.80;;
5379;SDS011;2713;42.680;23.310;2022-11-20T07:01:34;3.57;;;1.50;;
5379;SDS011;2713;42.680;23.310;2022-11-20T07:04:01;4.03;;;1.80;;
5379;SDS011;2713;42.680;23.310;2022-11-20T07:06:29;1.67;;;1.57;;
5379;SDS011;2713;42.680;23.310;2022-11-20T07:08:56;2.40;;;1.77;;
5379;SDS011;2713;42.680;23.310;2022-11-20T07:11:23;5.30;;;2.10;;
5379;SDS011;2713;42.680;23.310;2022-11-20T07:13:50;2.20;;;2.00;;
5379;SDS011;2713;42.680;23.310;2022-11-20T07:16:17;4.30;;;1.80;;
5379;SDS011;2713;42.680;23.310;2022-11-20T07:18:45;2.60;;;2.40;;
5379;SDS011;2713;42.680;23.310;2022-11-20T07:21:12;9.37;;;4.53;;
5379;SDS011;2713;42.680;23.310;2022-11-20T07:23:38;3.63;;;2.10;;
5379;SDS011;2713;42.680;23.310;2022-11-20T07:26:06;1.80;;;1.70;;
5379;SDS011;2713;42.680;23.310;2022-11-20T07:28:34;2.73;;;1.97;;
5379;SDS011;2713;42.680;23.310;2022-11-20T07:31:01;3.60;;;2.10;;
5379;SDS011;2713;42.680;23.310;2022-11-20T07:33:30;4.33;;;3.73;;
5379;SDS011;2713;42.680;23.310;2022-11-20T07:35:59;4.63;;;3.10;;
5379;SDS011;2713;42.680;23.310;2022-11-20T07:38:26;5.18;;;2.80;;
5379;SDS011;2713;42.680;23.310;2022-11-20T07:40:53;5.17;;;2.47;;
5379;SDS011;2713;42.680;23.310;2022-11-20T07:43:21;7.80;;;2.67;;
5379;SDS011;2713;42.680;23.310;2022-11-20T07:45:48;4.00;;;1.60;;
5379;SDS011;2713;42.680;23.310;2022-11-20T07:48:14;2.90;;;2.37;;
5379;SDS011;2713;42.680;23.310;2022-11-20T07:50:41;3.60;;;2.47;;
5379;SDS011;2713;42.680;23.310;2022-11-20T07:53:09;24.87;;;18.97;;
5379;SDS011;2713;42.680;23.310;2022-11-20T07:55:37;9.63;;;6.83;;
5379;SDS011;2713;42.680;23.310;2022-11-20T07:58:04;3.53;;;3.17;;
5379;SDS011;2713;42.680;23.310;2022-11-20T08:00:31;4.93;;;2.50;;
5379;SDS011;2713;42.680;23.310;2022-11-20T08:02:58;3.97;;;2.80;;
5379;SDS011;2713;42.680;23.310;2022-11-20T08:05:25;2.90;;;1.60;;
5379;SDS011;2713;42.680;23.310;2022-11-20T08:07:51;2.63;;;1.80;;
5379;SDS011;2713;42.680;23.310;2022-11-20T08:10:19;4.17;;;1.90;;
5379;SDS011;2713;42.680;23.310;2022-11-20T08:12:47;3.90;;;2.20;;
5379;SDS011;2713;42.680;23.310;2022-11-20T08:15:32;4.47;;;2.07;;
5379;SDS011;2713;42.680;23.310;2022-11-20T08:18:00;4.20;;;2.10;;
5379;SDS011;2713;42.680;23.310;2022-11-20T08:20:28;3.43;;;2.27;;
5379;SDS011;2713;42.680;23.310;2022-11-20T08:22:57;4.33;;;2.37;;
5379;SDS011;2713;42.680;23.310;2022-11-20T08:25:26;5.20;;;3.07;;
5379;SDS011;2713;42.680;23.310;2022-11-20T08:27:54;4.37;;;2.90;;
5379;SDS011;2713;42.680;23.310;2022-11-20T08:30:22;3.77;;;3.00;;
5379;SDS011;2713;42.680;23.310;2022-11-20T08:32:49;3.87;;;2.80;;
5379;SDS011;2713;42.680;23.310;2022-11-20T08:35:16;6.20;;;2.70;;
5379;SDS011;2713;42.680;23.310;2022-11-20T08:37:45;4.97;;;2.43;;
5379;SDS011;2713;42.680;23.310;2022-11-20T08:40:13;3.70;;;2.30;;
5379;SDS011;2713;42.680;23.310;2022-11-20T08:42:46;3.87;;;2.60;;
5379;SDS011;2713;42.680;23.310;2022-11-20T08:45:14;4.63;;;2.03;;
5379;SDS011;2713;42.680;23.310;2022-11-20T08:47:41;5.17;;;2.30;;
5379;SDS011;2713;42.680;23.310;2022-11-20T08:50:08;15.03;;;2.40;;
5379;SDS011;2713;42.680;23.310;2022-11-20T08:52:35;5.03;;;1.90;;
5379;SDS011;2713;42.680;23.310;2022-11-20T08:55:03;3.50;;;2.00;;
5379;SDS011;2713;42.680;23.310;2022-11-20T08:57:31;6.10;;;1.93;;
5379;SDS011;2713;42.680;23.310;2022-11-20T08:59:59;3.67;;;2.33;;
5379;SDS011;2713;42.680;23.310;2022-11-20T09:02:27;6.00;;;3.50;;
5379;SDS011;2713;42.680;23.310;2022-11-20T09:04:54;4.60;;;3.30;;
5379;SDS011;2713;42.680;23.310;2022-11-20T09:07:21;3.83;;;3.50;;
5379;SDS011;2713;42.680;23.310;2022-11-20T09:09:48;6.20;;;3.60;;
5379;SDS011;2713;42.680;23.310;2022-11-20T09:12:15;4.33;;;3.80;;
5379;SDS011;2713;42.680;23.310;2022-11-20T09:14:42;6.57;;;3.80;;
5379;SDS011;2713;42.680;23.310;2022-11-20T09:17:10;4.37;;;3.60;;
5379;SDS011;2713;42.680;23.310;2022-11-20T09:19:38;4.93;;;4.47;;
5379;SDS011;2713;42.680;23.310;2022-11-20T09:22:06;4.50;;;3.90;;
5379;SDS011;2713;42.680;23.310;2022-11-20T09:24:33;4.80;;;4.27;;
5379;SDS011;2713;42.680;23.310;2022-11-20T09:27:01;5.87;;;3.83;;
5379;SDS011;2713;42.680;23.310;2022-11-20T09:29:29;7.80;;;4.13;;
5379;SDS011;2713;42.680;23.310;2022-11-20T09:31:56;9.53;;;6.90;;
5379;SDS011;2713;42.680;23.310;2022-11-20T09:34:24;4.60;;;3.73;;
5379;SDS011;2713;42.680;23.310;2022-11-20T09:36:51;5.07;;;3.10;;
5379;SDS011;2713;42.680;23.310;2022-11-20T09:39:18;4.00;;;2.00;;
5379;SDS011;2713;42.680;23.310;2022-11-20T09:44:56;5.83;;;4.10;;
5379;SDS011;2713;42.680;23.310;2022-11-20T09:47:47;4.03;;;1.90;;
5379;SDS011;2713;42.680;23.310;2022-11-20T09:50:27;2.10;;;1.70;;
5379;SDS011;2713;42.680;23.310;2022-11-20T09:53:05;2.57;;;1.80;;
5379;SDS011;2713;42.680;23.310;2022-11-20T09:55:48;1.67;;;1.57;;
5379;SDS011;2713;42.680;23.310;2022-11-20T09:58:16;6.03;;;2.40;;
5379;SDS011;2713;42.680;23.310;2022-11-20T10:00:52;5.13;;;1.80;;
5379;SDS011;2713;42.680;23.310;2022-11-20T10:03:22;4.73;;;2.37;;
5379;SDS011;2713;42.680;23.310;2022-11-20T10:06:07;3.27;;;2.43;;
5379;SDS011;2713;42.680;23.310;2022-11-20T10:08:39;6.17;;;3.47;;
5379;SDS011;2713;42.680;23.310;2022-11-20T10:11:12;11.47;;;7.87;;
5379;SDS011;2713;42.680;23.310;2022-11-20T10:13:51;5.20;;;4.50;;
5379;SDS011;2713;42.680;23.310;2022-11-20T10:16:30;4.93;;;3.43;;
5379;SDS011;2713;42.680;23.310;2022-11-20T10:19:09;4.77;;;3.27;;
5379;SDS011;2713;42.680;23.310;2022-11-20T10:21:55;5.03;;;2.80;;
5379;SDS011;2713;42.680;23.310;2022-11-20T10:24:43;6.90;;;3.30;;
5379;SDS011;2713;42.680;23.310;2022-11-20T10:27:21;4.07;;;3.20;;
5379;SDS011;2713;42.680;23.310;2022-11-20T10:30:06;7.57;;;4.70;;
5379;SDS011;2713;42.680;23.310;2022-11-20T10:32:36;7.27;;;4.63;;
5379;SDS011;2713;42.680;23.310;2022-11-20T10:35:06;5.60;;;4.30;;
5379;SDS011;2713;42.680;23.310;2022-11-20T10:37:45;4.40;;;4.00;;
5379;SDS011;2713;42.680;23.310;2022-11-20T10:40:18;4.87;;;4.07;;
5379;SDS011;2713;42.680;23.310;2022-11-20T10:42:54;9.07;;;4.20;;
5379;SDS011;2713;42.680;23.310;2022-11-20T10:45:35;7.83;;;4.20;;
5379;SDS011;2713;42.680;23.310;2022-11-20T10:48:14;6.67;;;3.67;;
5379;SDS011;2713;42.680;23.310;2022-11-20T10:50:57;6.37;;;3.60;;
5379;SDS011;2713;42.680;23.310;2022-11-20T10:53:40;6.47;;;4.00;;
5379;SDS011;2713;42.680;23.310;2022-11-20T10:56:16;8.60;;;4.60;;
5379;SDS011;2713;42.680;23.310;2022-11-20T10:58:50;8.30;;;5.03;;
5379;SDS011;2713;42.680;23.310;2022-11-20T11:01:25;7.87;;;4.50;;
5379;SDS011;2713;42.680;23.310;2022-11-20T11:03:52;10.83;;;5.60;;
5379;SDS011;2713;42.680;23.310;2022-11-20T11:06:21;8.03;;;5.17;;
5379;SDS011;2713;42.680;23.310;2022-11-20T11:08:56;8.30;;;4.30;;
5379;SDS011;2713;42.680;23.310;2022-11-20T11:11:28;9.73;;;3.30;;
5379;SDS011;2713;42.680;23.310;2022-11-20T11:14:03;10.73;;;2.60;;
5379;SDS011;2713;42.680;23.310;2022-11-20T11:16:31;7.00;;;3.20;;
5379;SDS011;2713;42.680;23.310;2022-11-20T11:19:04;3.40;;;2.50;;
5379;SDS011;2713;42.680;23.310;2022-11-20T11:21:32;2.40;;;1.40;;
5379;SDS011;2713;42.680;23.310;2022-11-20T11:24:01;1.57;;;1.13;;
5379;SDS011;2713;42.680;23.310;2022-11-20T11:26:29;1.43;;;0.97;;
5379;SDS011;2713;42.680;23.310;2022-11-20T11:28:57;10.03;;;7.80;;
5379;SDS011;2713;42.680;23.310;2022-11-20T11:31:25;1.10;;;1.00;;
5379;SDS011;2713;42.680;23.310;2022-11-20T11:34:03;4.73;;;1.20;;
5379;SDS011;2713;42.680;23.310;2022-11-20T11:36:30;2.90;;;1.20;;
5379;SDS011;2713;42.680;23.310;2022-11-20T11:39:01;1.87;;;1.00;;
5379;SDS011;2713;42.680;23.310;2022-11-20T11:41:30;1.63;;;0.90;;
5379;SDS011;2713;42.680;23.310;2022-11-20T11:44:01;2.23;;;1.07;;
5379;SDS011;2713;42.680;23.310;2022-11-20T11:46:59;2.50;;;1.00;;
5379;SDS011;2713;42.680;23.310;2022-11-20T11:49:26;1.27;;;1.17;;
5379;SDS011;2713;42.680;23.310;2022-11-20T11:51:59;4.77;;;1.60;;
5379;SDS011;2713;42.680;23.310;2022-11-20T11:54:34;5.17;;;1.50;;
5379;SDS011;2713;42.680;23.310;2022-11-20T11:57:05;5.50;;;1.27;;
5379;SDS011;2713;42.680;23.310;2022-11-20T11:59:40;1.83;;;1.20;;
5379;SDS011;2713;42.680;23.310;2022-11-20T12:02:22;3.23;;;1.07;;
5379;SDS011;2713;42.680;23.310;2022-11-20T12:04:57;1.60;;;0.90;;
5379;SDS011;2713;42.680;23.310;2022-11-20T12:07:41;3.33;;;0.97;;
5379;SDS011;2713;42.680;23.310;2022-11-20T12:10:15;5.27;;;1.20;;
5379;SDS011;2713;42.680;23.310;2022-11-20T12:12:49;2.63;;;1.30;;
5379;SDS011;2713;42.680;23.310;2022-11-20T12:15:22;1.87;;;1.00;;
5379;SDS011;2713;42.680;23.310;2022-11-20T12:17:54;6.20;;;1.43;;
5379;SDS011;2713;42.680;23.310;2022-11-20T12:20:22;4.10;;;1.17;;
5379;SDS011;2713;42.680;23.310;2022-11-20T12:22:53;1.50;;;0.90;;
5379;SDS011;2713;42.680;23.310;2022-11-20T12:25:27;3.13;;;0.90;;
5379;SDS011;2713;42.680;23.310;2022-11-20T12:28:04;2.50;;;1.10;;
5379;SDS011;2713;42.680;23.310;2022-11-20T12:30:54;3.10;;;1.50;;
5379;SDS011;2713;42.680;23.310;2022-11-20T12:33:39;4.70;;;3.30;;
5379;SDS011;2713;42.680;23.310;2022-11-20T12:36:19;3.10;;;1.30;;
5379;SDS011;2713;42.680;23.310;2022-11-20T12:38:59;3.60;;;1.00;;
5379;SDS011;2713;42.680;23.310;2022-11-20T12:41:42;1.60;;;1.00;;
5379;SDS011;2713;42.680;23.310;2022-11-20T12:44:36;3.40;;;1.40;;
5379;SDS011;2713;42.680;23.310;2022-11-20T12:47:31;1.97;;;0.90;;
5379;SDS011;2713;42.680;23.310;2022-11-20T12:50:10;3.50;;;1.50;;
5379;SDS011;2713;42.680;23.310;2022-11-20T12:52:45;2.43;;;1.70;;
5379;SDS011;2713;42.680;23.310;2022-11-20T12:55:16;1.60;;;1.40;;
5379;SDS011;2713;42.680;23.310;2022-11-20T12:57:57;2.40;;;1.93;;
5379;SDS011;2713;42.680;23.310;2022-11-20T13:00:27;4.97;;;3.70;;
5379;SDS011;2713;42.680;23.310;2022-11-20T13:03:06;5.33;;;3.47;;
5379;SDS011;2713;42.680;23.310;2022-11-20T13:05:51;4.07;;;3.50;;
5379;SDS011;2713;42.680;23.310;2022-11-20T13:08:27;7.33;;;4.33;;
5379;SDS011;2713;42.680;23.310;2022-11-20T13:11:00;3.70;;;3.37;;
5379;SDS011;2713;42.680;23.310;2022-11-20T13:13:36;5.77;;;3.90;;
5379;SDS011;2713;42.680;23.310;2022-11-20T13:16:16;4.40;;;3.70;;
5379;SDS011;2713;42.680;23.310;2022-11-20T13:18:48;3.60;;;3.30;;
5379;SDS011;2713;42.680;23.310;2022-11-20T13:21:16;4.10;;;3.73;;
5379;SDS011;2713;42.680;23.310;2022-11-20T13:23:44;5.63;;;3.93;;
5379;SDS011;2713;42.680;23.310;2022-11-20T13:26:15;9.20;;;3.87;;
5379;SDS011;2713;42.680;23.310;2022-11-20T13:28:46;7.00;;;3.17;;
5379;SDS011;2713;42.680;23.310;2022-11-20T13:31:26;6.73;;;3.83;;
5379;SDS011;2713;42.680;23.310;2022-11-20T13:33:56;4.93;;;3.90;;
5379;SDS011;2713;42.680;23.310;2022-11-20T13:36:26;7.13;;;5.87;;
5379;SDS011;2713;42.680;23.310;2022-11-20T13:38:55;7.57;;;5.20;;
5379;SDS011;2713;42.680;23.310;2022-11-20T13:41:23;9.23;;;6.23;;
5379;SDS011;2713;42.680;23.310;2022-11-20T13:43:58;8.73;;;6.77;;
5379;SDS011;2713;42.680;23.310;2022-11-20T13:46:35;13.03;;;6.43;;
5379;SDS011;2713;42.680;23.310;2022-11-20T13:49:07;8.60;;;5.00;;
5379;SDS011;2713;42.680;23.310;2022-11-20T13:51:37;8.80;;;4.47;;
5379;SDS011;2713;42.680;23.310;2022-11-20T13:54:16;5.83;;;4.20;;
5379;SDS011;2713;42.680;23.310;2022-11-20T13:57:02;4.63;;;4.13;;
5379;SDS011;2713;42.680;23.310;2022-11-20T13:59:43;6.83;;;4.43;;
5379;SDS011;2713;42.680;23.310;2022-11-20T14:02:20;5.03;;;4.50;;
5379;SDS011;2713;42.680;23.310;2022-11-20T14:04:48;6.33;;;4.20;;
5379;SDS011;2713;42.680;23.310;2022-11-20T14:07:19;4.90;;;4.40;;
5379;SDS011;2713;42.680;23.310;2022-11-20T14:09:49;5.10;;;4.33;;
5379;SDS011;2713;42.680;23.310;2022-11-20T14:12:18;5.60;;;4.20;;
5379;SDS011;2713;42.680;23.310;2022-11-20T14:14:49;7.90;;;5.23;;
5379;SDS011;2713;42.680;23.310;2022-11-20T14:17:19;11.80;;;5.57;;
5379;SDS011;2713;42.680;23.310;2022-11-20T14:19:46;7.07;;;4.93;;
5379;SDS011;2713;42.680;23.310;2022-11-20T14:22:17;7.10;;;4.90;;
5379;SDS011;2713;42.680;23.310;2022-11-20T14:24:46;10.53;;;5.50;;
5379;SDS011;2713;42.680;23.310;2022-11-20T14:27:14;5.13;;;4.63;;
5379;SDS011;2713;42.680;23.310;2022-11-20T14:29:43;9.90;;;5.53;;
5379;SDS011;2713;42.680;23.310;2022-11-20T14:32:15;7.10;;;5.30;;
5379;SDS011;2713;42.680;23.310;2022-11-20T14:34:43;5.30;;;4.73;;
5379;SDS011;2713;42.680;23.310;2022-11-20T14:37:12;8.17;;;5.87;;
5379;SDS011;2713;42.680;23.310;2022-11-20T14:39:48;13.03;;;7.10;;
5379;SDS011;2713;42.680;23.310;2022-11-20T14:42:17;11.43;;;6.10;;
5379;SDS011;2713;42.680;23.310;2022-11-20T14:44:45;6.50;;;4.17;;
5379;SDS011;2713;42.680;23.310;2022-11-20T14:47:17;3.90;;;3.60;;
5379;SDS011;2713;42.680;23.310;2022-11-20T14:49:46;4.23;;;3.13;;
5379;SDS011;2713;42.680;23.310;2022-11-20T14:52:14;2.90;;;2.47;;
5379;SDS011;2713;42.680;23.310;2022-11-20T14:54:43;3.50;;;2.40;;
5379;SDS011;2713;42.680;23.310;2022-11-20T14:57:20;2.43;;;2.23;;
5379;SDS011;2713;42.680;23.310;2022-11-20T14:59:49;2.93;;;2.40;;
5379;SDS011;2713;42.680;23.310;2022-11-20T15:02:18;4.40;;;2.07;;
5379;SDS011;2713;42.680;23.310;2022-11-20T15:04:45;2.40;;;2.20;;
5379;SDS011;2713;42.680;23.310;2022-11-20T15:07:22;2.10;;;1.90;;
5379;SDS011;2713;42.680;23.310;2022-11-20T15:09:58;2.80;;;2.07;;
5379;SDS011;2713;42.680;23.310;2022-11-20T15:12:26;3.33;;;2.27;;
5379;SDS011;2713;42.680;23.310;2022-11-20T15:14:53;2.50;;;2.30;;
5379;SDS011;2713;42.680;23.310;2022-11-20T15:17:21;3.13;;;2.73;;
5379;SDS011;2713;42.680;23.310;2022-11-20T15:19:48;4.10;;;2.93;;
5379;SDS011;2713;42.680;23.310;2022-11-20T15:22:15;4.27;;;3.67;;